Time;durP1;ratioP1;P1;durP2;ratioP2;P2;SDS_P1;SDS_P2;PMS_P1;PMS_P2;Temp;Humidity;BMP_temperature;BMP_pressure;BME280_temperature;BME280_humidity;BME280_pressure;Samples;Min_cycle;Max_cycle;Signal;HPM_P1;HPM_P2
2022/03/10 00:00:00;;;;;;;26.47;17.67;;;4.30;58.50;;;;;;5093924;28;20936;-59
2022/03/10 00:02:29;;;;;;;22.23;13.43;;;4.40;59.00;;;;;;5093817;28;20484;-59
2022/03/10 00:04:56;;;;;;;21.77;15.97;;;4.40;59.00;;;;;;5094262;28;20471;-59
2022/03/10 00:07:23;;;;;;;25.30;15.30;;;4.40;59.20;;;;;;5093813;28;20473;-58
2022/03/10 00:09:50;;;;;;;25.17;15.17;;;4.40;58.90;;;;;;5094137;28;20489;-59
2022/03/10 00:12:18;;;;;;;20.90;14.63;;;4.20;59.10;;;;;;5093835;28;20439;-59
2022/03/10 00:14:45;;;;;;;24.70;15.40;;;4.30;59.00;;;;;;5093769;28;20795;-59
2022/03/10 00:17:12;;;;;;;25.97;15.83;;;4.30;59.60;;;;;;5093976;28;20470;-59
2022/03/10 00:19:41;;;;;;;26.00;16.77;;;4.30;59.80;;;;;;5093709;28;20969;-60
2022/03/10 00:22:11;;;;;;;20.40;14.90;;;4.20;59.10;;;;;;5093957;28;20446;-59
2022/03/10 00:24:38;;;;;;;21.10;14.73;;;4.20;59.60;;;;;;5093889;28;20456;-59
2022/03/10 00:27:06;;;;;;;24.50;16.50;;;4.20;59.90;;;;;;5093934;28;20463;-59
2022/03/10 00:29:33;;;;;;;25.27;15.70;;;4.10;60.20;;;;;;5093490;28;20537;-60
2022/03/10 00:32:01;;;;;;;25.63;15.67;;;4.20;60.20;;;;;;5093575;28;21173;-59
2022/03/10 00:34:30;;;;;;;26.67;16.90;;;4.10;60.10;;;;;;5093883;28;20530;-60
2022/03/10 00:36:58;;;;;;;24.03;16.63;;;4.10;60.80;;;;;;5093756;28;20471;-59
2022/03/10 00:39:25;;;;;;;25.70;17.57;;;4.10;60.80;;;;;;5093790;28;20447;-58
2022/03/10 00:41:52;;;;;;;30.37;16.50;;;4.00;60.80;;;;;;5094555;28;20431;-59
2022/03/10 00:44:20;;;;;;;33.27;16.90;;;3.90;61.20;;;;;;5093395;28;20989;-60
2022/03/10 00:46:48;;;;;;;23.33;15.70;;;4.00;61.10;;;;;;5094150;28;20478;-59
2022/03/10 00:49:15;;;;;;;21.40;14.50;;;3.90;61.60;;;;;;5094232;28;20798;-59
2022/03/10 00:51:42;;;;;;;28.33;17.97;;;3.90;62.30;;;;;;5093337;28;20451;-59
2022/03/10 00:54:10;;;;;;;28.20;19.77;;;3.90;61.10;;;;;;5093577;28;20531;-58
2022/03/10 00:56:38;;;;;;;26.57;17.57;;;3.80;61.20;;;;;;5093835;28;20840;-58
2022/03/10 00:59:05;;;;;;;32.27;17.73;;;3.90;62.30;;;;;;5094148;28;20451;-58
2022/03/10 01:01:32;;;;;;;29.37;16.90;;;3.80;62.30;;;;;;5093276;28;20451;-60
2022/03/10 01:03:59;;;;;;;30.27;17.03;;;3.80;63.10;;;;;;5093172;28;20844;-59
2022/03/10 01:06:26;;;;;;;33.23;17.50;;;3.80;62.90;;;;;;5093519;28;20551;-59
2022/03/10 01:08:53;;;;;;;28.83;18.70;;;3.80;63.10;;;;;;5093536;28;20467;-60
2022/03/10 01:11:22;;;;;;;33.40;18.37;;;3.80;63.20;;;;;;5093419;28;20447;-58
2022/03/10 01:13:49;;;;;;;24.73;16.00;;;3.90;63.50;;;;;;5093482;28;20439;-57
2022/03/10 01:16:16;;;;;;;31.97;17.83;;;3.90;63.50;;;;;;5093041;28;20471;-59
2022/03/10 01:18:45;;;;;;;40.23;17.83;;;3.70;63.40;;;;;;5093917;28;20448;-59
2022/03/10 01:21:12;;;;;;;29.30;18.03;;;3.70;63.70;;;;;;5093058;28;20961;-59
2022/03/10 01:23:39;;;;;;;26.77;17.70;;;3.70;64.20;;;;;;5093276;28;20479;-60
2022/03/10 01:26:06;;;;;;;29.40;18.50;;;3.70;64.80;;;;;;5093452;28;20447;-58
2022/03/10 01:28:36;;;;;;;26.50;17.17;;;3.60;64.50;;;;;;5093552;28;20470;-58
2022/03/10 01:31:04;;;;;;;26.80;16.50;;;3.70;64.80;;;;;;5093061;28;20428;-58
2022/03/10 01:33:31;;;;;;;24.23;17.23;;;3.70;64.40;;;;;;5092967;28;20535;-58
2022/03/10 01:35:58;;;;;;;34.67;16.80;;;3.60;64.60;;;;;;5094613;28;20794;-58
2022/03/10 01:38:25;;;;;;;29.17;16.93;;;3.60;65.40;;;;;;5096908;28;20469;-58
2022/03/10 01:40:52;;;;;;;34.93;19.50;;;3.40;64.50;;;;;;5096579;28;20934;-58
2022/03/10 01:43:19;;;;;;;27.40;16.27;;;3.40;64.80;;;;;;5096442;28;20992;-59
2022/03/10 01:45:48;;;;;;;25.60;15.67;;;3.40;65.60;;;;;;5096786;28;20443;-59
2022/03/10 01:48:15;;;;;;;29.00;17.30;;;3.50;65.50;;;;;;5096352;28;20554;-58
2022/03/10 01:50:42;;;;;;;27.07;18.27;;;3.50;65.40;;;;;;5096712;28;20597;-59
2022/03/10 01:53:09;;;;;;;24.00;15.47;;;3.50;66.40;;;;;;5096353;28;20439;-58
2022/03/10 01:55:36;;;;;;;31.67;17.10;;;3.50;66.10;;;;;;5096542;28;20555;-59
2022/03/10 01:58:04;;;;;;;21.53;14.97;;;3.60;65.90;;;;;;5096220;28;20474;-58
2022/03/10 02:00:31;;;;;;;29.67;17.30;;;3.40;66.00;;;;;;5096500;28;20465;-58
2022/03/10 02:03:00;;;;;;;26.93;15.60;;;3.40;66.50;;;;;;5096688;28;20466;-59
2022/03/10 02:05:30;;;;;;;31.23;17.10;;;3.50;66.30;;;;;;5096103;28;20448;-59
2022/03/10 02:10:42;;;;;;;28.57;17.33;;;3.50;66.40;;;;;;5096452;28;20794;-59
2022/03/10 02:13:09;;;;;;;37.67;17.30;;;3.40;66.30;;;;;;5096313;28;20447;-58
2022/03/10 02:18:22;;;;;;;29.67;17.70;;;3.30;65.50;;;;;;5096293;28;20450;-58
2022/03/10 02:20:49;;;;;;;28.63;16.80;;;3.30;66.60;;;;;;5096144;28;20841;-58
2022/03/10 02:23:19;;;;;;;24.03;15.17;;;3.30;67.20;;;;;;5096548;28;20511;-58
2022/03/10 02:25:46;;;;;;;33.30;18.60;;;3.20;66.70;;;;;;5095993;28;20969;-58
2022/03/10 02:28:13;;;;;;;31.37;18.60;;;3.20;67.20;;;;;;5094495;28;20528;-59
2022/03/10 02:30:44;;;;;;;25.00;16.10;;;3.10;67.80;;;;;;5095945;28;20426;-59
2022/03/10 02:33:11;;;;;;;27.10;18.63;;;3.20;68.00;;;;;;5095554;28;20914;-59
2022/03/10 02:35:38;;;;;;;26.90;16.00;;;3.20;67.70;;;;;;5095836;28;20448;-59
2022/03/10 02:38:05;;;;;;;26.87;16.83;;;3.20;67.20;;;;;;5095716;28;20490;-59
2022/03/10 02:40:33;;;;;;;30.50;16.20;;;3.20;68.10;;;;;;5095490;28;20447;-59
2022/03/10 02:43:00;;;;;;;27.20;16.00;;;3.00;67.80;;;;;;5095303;28;20448;-59
2022/03/10 02:45:27;;;;;;;25.53;14.83;;;2.90;68.30;;;;;;5095401;28;20485;-59
2022/03/10 02:47:54;;;;;;;27.67;17.93;;;2.90;68.90;;;;;;5095469;28;20474;-59
2022/03/10 02:50:22;;;;;;;27.40;16.40;;;3.00;68.80;;;;;;5095541;28;20455;-58
2022/03/10 02:52:49;;;;;;;30.17;17.80;;;3.10;68.20;;;;;;5095510;28;20432;-58
2022/03/10 02:55:16;;;;;;;19.17;14.40;;;3.20;68.00;;;;;;5095339;28;20508;-58
2022/03/10 02:57:44;;;;;;;25.63;14.93;;;3.20;68.50;;;;;;5094980;28;20459;-58
2022/03/10 03:00:14;;;;;;;21.87;14.77;;;3.00;69.40;;;;;;5095060;28;20451;-58
2022/03/10 03:02:42;;;;;;;20.93;15.23;;;2.90;69.20;;;;;;5095265;28;20447;-58
2022/03/10 03:05:09;;;;;;;28.80;16.80;;;2.80;69.60;;;;;;5094879;28;21058;-59
2022/03/10 03:07:37;;;;;;;25.83;14.70;;;2.90;69.70;;;;;;5095110;28;20520;-58
2022/03/10 03:10:04;;;;;;;24.20;15.17;;;2.80;69.70;;;;;;5095162;28;20444;-58
2022/03/10 03:12:43;;;;;;;21.40;16.27;;;2.80;69.50;;;;;;5095096;28;20447;-58
2022/03/10 03:15:12;;;;;;;24.10;15.20;;;3.00;70.10;;;;;;5095063;28;20813;-58
2022/03/10 03:17:39;;;;;;;23.10;14.73;;;3.00;70.20;;;;;;5094977;28;20868;-58
2022/03/10 03:20:09;;;;;;;27.07;14.87;;;2.90;69.80;;;;;;5095026;28;20452;-58
2022/03/10 03:22:36;;;;;;;20.73;14.00;;;2.90;69.40;;;;;;5094996;28;20496;-58
2022/03/10 03:25:03;;;;;;;23.40;15.50;;;2.90;69.60;;;;;;5094841;28;20486;-58
2022/03/10 03:27:30;;;;;;;20.60;13.10;;;2.90;70.80;;;;;;5094449;28;20474;-58
2022/03/10 03:29:57;;;;;;;23.87;13.30;;;2.80;71.40;;;;;;5094356;28;20520;-58
2022/03/10 03:32:26;;;;;;;23.13;14.57;;;2.80;71.50;;;;;;5094448;28;20451;-58
2022/03/10 03:34:53;;;;;;;21.23;14.17;;;2.70;72.10;;;;;;5094708;28;20454;-58
2022/03/10 03:37:20;;;;;;;25.63;14.93;;;2.70;72.20;;;;;;5094642;28;20476;-59
2022/03/10 03:39:47;;;;;;;24.73;15.70;;;2.80;71.50;;;;;;5094622;28;20447;-58
2022/03/10 03:42:14;;;;;;;20.97;14.00;;;2.70;72.00;;;;;;5094329;28;20447;-58
2022/03/10 03:44:41;;;;;;;27.40;15.20;;;2.70;71.90;;;;;;5094240;28;20459;-59
2022/03/10 03:47:08;;;;;;;21.30;13.80;;;2.80;72.90;;;;;;5094151;28;20974;-58
2022/03/10 03:49:37;;;;;;;20.27;13.20;;;2.70;71.90;;;;;;5094500;28;20573;-59
2022/03/10 03:52:04;;;;;;;17.93;14.83;;;2.70;72.30;;;;;;5094396;28;20838;-59
2022/03/10 03:54:31;;;;;;;24.10;14.77;;;2.60;72.60;;;;;;5094294;28;20507;-59
2022/03/10 03:56:58;;;;;;;21.37;15.10;;;2.60;73.80;;;;;;5094001;28;20521;-59
2022/03/10 03:59:25;;;;;;;23.83;13.50;;;2.70;73.60;;;;;;5093520;28;20933;-59
2022/03/10 04:01:52;;;;;;;26.03;14.37;;;2.70;73.20;;;;;;5094239;28;20451;-58
2022/03/10 04:04:21;;;;;;;26.07;15.90;;;2.70;73.80;;;;;;5094136;28;20479;-58
2022/03/10 04:06:49;;;;;;;19.60;14.37;;;2.60;73.60;;;;;;5094136;28;20860;-59
2022/03/10 04:09:16;;;;;;;28.23;15.50;;;2.60;73.30;;;;;;5093887;28;20451;-58
2022/03/10 04:11:44;;;;;;;26.30;15.73;;;2.60;74.50;;;;;;5094141;28;20451;-58
2022/03/10 04:14:11;;;;;;;24.53;15.70;;;2.50;74.60;;;;;;5093855;28;20432;-58
2022/03/10 04:16:38;;;;;;;23.83;15.73;;;2.40;74.70;;;;;;5093964;28;20546;-58
2022/03/10 04:19:05;;;;;;;21.10;14.70;;;2.50;75.00;;;;;;5094006;28;20576;-58
2022/03/10 04:21:33;;;;;;;22.03;14.00;;;2.60;74.40;;;;;;5093990;28;20526;-58
2022/03/10 04:24:02;;;;;;;19.90;14.17;;;2.60;74.40;;;;;;5093909;28;20471;-58
2022/03/10 04:26:29;;;;;;;26.13;14.50;;;2.60;74.30;;;;;;5093865;28;20467;-58
2022/03/10 04:28:56;;;;;;;24.60;13.97;;;2.50;75.20;;;;;;5093584;28;20539;-59
2022/03/10 04:31:23;;;;;;;19.67;13.93;;;2.50;75.50;;;;;;5093836;28;20451;-58
2022/03/10 04:33:51;;;;;;;24.87;15.90;;;2.30;75.40;;;;;;5093727;28;20477;-58
2022/03/10 04:36:18;;;;;;;21.47;13.57;;;2.20;75.50;;;;;;5093779;28;20810;-58
2022/03/10 04:38:45;;;;;;;22.07;15.27;;;2.30;76.60;;;;;;5093486;28;20457;-58
2022/03/10 04:41:13;;;;;;;26.53;16.10;;;2.30;76.20;;;;;;5093772;28;20471;-59
2022/03/10 04:43:40;;;;;;;21.70;14.73;;;2.30;76.80;;;;;;5093383;28;20476;-59
2022/03/10 04:46:08;;;;;;;22.40;15.90;;;2.30;76.70;;;;;;5093690;28;20447;-58
2022/03/10 04:48:35;;;;;;;25.90;14.67;;;2.20;76.70;;;;;;5093419;28;20805;-58
2022/03/10 04:51:02;;;;;;;28.40;15.80;;;2.30;77.50;;;;;;5093392;28;20500;-58
2022/03/10 04:53:29;;;;;;;22.20;14.50;;;2.30;77.30;;;;;;5093720;28;20452;-58
2022/03/10 04:55:56;;;;;;;25.40;15.43;;;2.20;77.20;;;;;;5093732;28;20500;-58
2022/03/10 04:58:24;;;;;;;21.90;15.73;;;2.20;77.20;;;;;;5093672;28;20451;-58
2022/03/10 05:00:51;;;;;;;25.37;14.80;;;2.20;77.50;;;;;;5093240;28;20451;-58
2022/03/10 05:03:18;;;;;;;21.17;14.87;;;2.10;77.70;;;;;;5093550;28;20474;-58
2022/03/10 05:05:45;;;;;;;23.97;16.50;;;2.10;78.00;;;;;;5093506;28;20509;-58
2022/03/10 05:08:12;;;;;;;23.40;14.60;;;2.20;77.80;;;;;;5093439;28;20463;-58
2022/03/10 05:10:39;;;;;;;25.23;14.97;;;2.20;78.10;;;;;;5094526;28;20444;-58
2022/03/10 05:13:07;;;;;;;20.80;14.30;;;2.10;78.50;;;;;;5097483;28;20443;-58
2022/03/10 05:15:36;;;;;;;20.53;15.20;;;2.20;78.80;;;;;;5096963;28;20858;-59
2022/03/10 05:18:05;;;;;;;28.13;14.37;;;2.20;78.40;;;;;;5096922;28;20467;-59
2022/03/10 05:20:33;;;;;;;19.60;14.13;;;2.20;78.80;;;;;;5096914;28;20457;-58
2022/03/10 05:23:02;;;;;;;20.57;14.20;;;2.10;78.80;;;;;;5097715;28;20454;-60
2022/03/10 05:25:33;;;;;;;23.60;14.53;;;2.20;78.20;;;;;;5096751;28;20483;-59
2022/03/10 05:28:00;;;;;;;24.00;14.40;;;2.20;78.60;;;;;;5096827;28;20554;-59
2022/03/10 05:30:27;;;;;;;27.17;17.50;;;2.20;79.20;;;;;;5096582;28;20588;-58
2022/03/10 05:32:56;;;;;;;20.90;15.43;;;2.00;79.20;;;;;;5097030;28;20565;-59
2022/03/10 05:35:25;;;;;;;22.70;15.67;;;1.90;79.50;;;;;;5096686;28;20435;-57
2022/03/10 05:37:52;;;;;;;17.97;13.07;;;1.90;80.00;;;;;;5096866;28;20524;-58
2022/03/10 05:40:21;;;;;;;24.07;14.50;;;2.00;79.50;;;;;;5096597;28;20453;-58
2022/03/10 05:42:50;;;;;;;22.50;14.60;;;2.10;79.20;;;;;;5096802;28;20439;-59
2022/03/10 05:45:20;;;;;;;22.23;14.23;;;2.10;80.30;;;;;;5096701;28;20506;-58
2022/03/10 05:47:48;;;;;;;24.23;14.57;;;2.10;80.10;;;;;;5097006;28;20467;-58
2022/03/10 05:50:16;;;;;;;30.40;16.57;;;2.20;80.20;;;;;;5096593;28;20987;-60
2022/03/10 05:52:45;;;;;;;23.70;14.97;;;2.20;79.90;;;;;;5096640;28;20530;-60
2022/03/10 05:55:13;;;;;;;18.90;12.90;;;2.10;79.60;;;;;;5096561;28;20455;-58
2022/03/10 05:57:41;;;;;;;21.53;11.77;;;2.00;79.80;;;;;;5096168;28;20479;-58
2022/03/10 06:00:10;;;;;;;17.50;13.70;;;2.00;80.70;;;;;;5096053;28;20926;-58
2022/03/10 06:02:37;;;;;;;28.40;17.87;;;1.90;81.70;;;;;;5096054;28;20997;-59
2022/03/10 06:05:05;;;;;;;26.73;14.60;;;1.90;80.70;;;;;;5096262;28;20501;-58
2022/03/10 06:07:34;;;;;;;26.37;16.97;;;1.90;80.90;;;;;;5096321;28;20546;-58
2022/03/10 06:10:03;;;;;;;22.77;15.47;;;2.00;81.80;;;;;;5096284;28;20452;-58
2022/03/10 06:12:30;;;;;;;23.50;15.20;;;2.00;82.10;;;;;;5096100;28;20454;-59
2022/03/10 06:14:58;;;;;;;19.37;14.93;;;1.90;81.70;;;;;;5096107;28;20443;-58
2022/03/10 06:17:25;;;;;;;26.57;15.30;;;2.00;82.20;;;;;;5096035;28;20471;-58
2022/03/10 06:19:53;;;;;;;19.03;15.60;;;2.00;82.30;;;;;;5095488;28;20938;-58
2022/03/10 06:22:22;;;;;;;20.60;15.07;;;2.00;82.40;;;;;;5095274;28;20452;-58
2022/03/10 06:24:51;;;;;;;18.90;13.93;;;1.90;83.00;;;;;;5095824;28;20574;-59
2022/03/10 06:27:22;;;;;;;25.60;15.23;;;1.90;82.30;;;;;;5095549;28;20558;-58
2022/03/10 06:29:50;;;;;;;24.43;15.77;;;2.00;82.80;;;;;;5095352;28;20519;-58
2022/03/10 06:32:18;;;;;;;19.43;13.70;;;2.10;82.90;;;;;;5095672;28;20860;-58
2022/03/10 06:34:46;;;;;;;22.87;14.70;;;2.10;83.00;;;;;;5095515;28;20452;-58
2022/03/10 06:37:13;;;;;;;22.63;14.23;;;2.20;83.00;;;;;;5095538;28;20486;-58
2022/03/10 06:39:41;;;;;;;23.77;14.10;;;2.30;83.00;;;;;;5095545;28;20486;-58
2022/03/10 06:42:10;;;;;;;21.90;15.53;;;2.30;82.80;;;;;;5095352;28;20443;-58
2022/03/10 06:44:37;;;;;;;27.33;16.57;;;2.40;82.80;;;;;;5094859;28;20532;-58
2022/03/10 06:47:05;;;;;;;27.30;15.03;;;2.50;82.90;;;;;;5095464;28;20470;-58
2022/03/10 06:49:33;;;;;;;23.30;16.83;;;2.50;82.20;;;;;;5095486;28;20447;-58
2022/03/10 06:52:00;;;;;;;33.47;19.00;;;2.60;81.90;;;;;;5094925;28;20486;-58
2022/03/10 06:54:28;;;;;;;28.37;17.30;;;2.60;80.80;;;;;;5094891;28;20454;-58
2022/03/10 06:56:55;;;;;;;23.33;15.43;;;2.80;80.40;;;;;;5094924;28;20482;-59
2022/03/10 06:59:23;;;;;;;21.03;15.03;;;2.80;79.90;;;;;;5094701;28;21017;-58
2022/03/10 07:01:50;;;;;;;25.80;15.93;;;2.80;80.70;;;;;;5095081;28;20443;-58
2022/03/10 07:04:18;;;;;;;25.80;16.23;;;2.90;80.50;;;;;;5094762;28;20446;-58
2022/03/10 07:06:45;;;;;;;25.53;16.57;;;3.10;79.20;;;;;;5094637;28;20506;-58
2022/03/10 07:09:12;;;;;;;23.80;17.50;;;3.20;78.30;;;;;;5095085;28;20451;-58
2022/03/10 07:11:39;;;;;;;21.90;15.67;;;3.20;77.90;;;;;;5094988;28;20443;-58
2022/03/10 07:14:06;;;;;;;27.40;15.97;;;3.30;77.60;;;;;;5094970;28;20454;-58
2022/03/10 07:16:35;;;;;;;25.47;16.10;;;3.30;77.10;;;;;;5094567;28;20471;-58
2022/03/10 07:19:02;;;;;;;29.10;17.50;;;3.50;76.90;;;;;;5094868;28;20454;-59
2022/03/10 07:21:29;;;;;;;25.97;16.00;;;3.50;75.80;;;;;;5094238;28;20562;-58
2022/03/10 07:23:56;;;;;;;28.83;18.90;;;3.60;76.70;;;;;;5094637;28;20482;-58
2022/03/10 07:26:23;;;;;;;29.33;17.53;;;3.70;75.60;;;;;;5094232;28;20487;-58
2022/03/10 07:28:50;;;;;;;30.40;18.50;;;3.80;75.30;;;;;;5094378;28;20487;-58
2022/03/10 07:31:17;;;;;;;28.03;17.60;;;3.90;73.70;;;;;;5094174;28;20475;-58
2022/03/10 07:33:46;;;;;;;26.80;16.40;;;4.10;73.50;;;;;;5093462;28;20440;-58
2022/03/10 07:36:13;;;;;;;34.40;18.93;;;4.20;73.10;;;;;;5093939;28;20531;-58
2022/03/10 07:38:40;;;;;;;26.43;18.40;;;4.30;72.90;;;;;;5094497;28;20456;-58
2022/03/10 07:41:08;;;;;;;31.77;19.90;;;4.40;71.90;;;;;;5094298;28;20447;-58
2022/03/10 07:43:35;;;;;;;25.33;17.83;;;4.50;71.30;;;;;;5094170;28;20486;-58
2022/03/10 07:46:04;;;;;;;29.13;17.47;;;4.60;70.80;;;;;;5093652;28;20578;-58
2022/03/10 07:48:31;;;;;;;28.90;18.80;;;4.70;69.80;;;;;;5093810;28;20454;-58
2022/03/10 07:51:01;;;;;;;23.77;15.73;;;4.80;69.80;;;;;;5093942;28;20526;-58
2022/03/10 07:53:28;;;;;;;30.60;19.70;;;4.80;69.70;;;;;;5094261;28;20526;-58
2022/03/10 07:55:56;;;;;;;32.00;19.30;;;4.80;69.60;;;;;;5093699;28;20451;-58
2022/03/10 07:58:25;;;;;;;31.60;20.97;;;4.90;69.60;;;;;;5094051;28;20470;-58
2022/03/10 08:00:54;;;;;;;32.00;20.07;;;5.00;69.90;;;;;;5093329;28;20447;-58
2022/03/10 08:03:22;;;;;;;30.57;19.00;;;5.10;68.80;;;;;;5093340;28;20447;-58
2022/03/10 08:05:49;;;;;;;27.30;18.20;;;5.20;68.70;;;;;;5093590;28;20997;-59
2022/03/10 08:08:18;;;;;;;31.03;20.30;;;5.30;68.20;;;;;;5093729;28;20529;-58
2022/03/10 08:10:45;;;;;;;30.80;20.40;;;5.30;67.50;;;;;;5093833;28;20576;-58
2022/03/10 08:13:12;;;;;;;26.80;18.73;;;5.40;67.40;;;;;;5093722;28;20799;-58
2022/03/10 08:15:40;;;;;;;28.73;19.50;;;5.50;67.40;;;;;;5093491;28;20439;-59
2022/03/10 08:18:07;;;;;;;24.40;17.27;;;5.60;66.00;;;;;;5093633;28;20467;-58
2022/03/10 08:20:34;;;;;;;32.50;18.37;;;5.70;66.00;;;;;;5093768;28;20454;-58
2022/03/10 08:23:02;;;;;;;27.60;18.60;;;5.80;65.40;;;;;;5093421;28;20436;-59
2022/03/10 08:25:30;;;;;;;27.73;18.60;;;5.90;64.80;;;;;;5093336;28;20483;-58
2022/03/10 08:27:58;;;;;;;23.50;16.93;;;6.00;64.00;;;;;;5093341;28;20543;-58
2022/03/10 08:30:25;;;;;;;23.53;15.83;;;6.10;63.20;;;;;;5093282;28;20827;-58
2022/03/10 08:32:52;;;;;;;27.30;19.00;;;6.20;63.10;;;;;;5093257;28;20479;-59
2022/03/10 08:35:19;;;;;;;30.77;18.57;;;6.30;62.30;;;;;;5093542;28;20466;-58
2022/03/10 08:37:47;;;;;;;32.17;18.80;;;6.40;62.20;;;;;;5093627;28;20467;-58
2022/03/10 08:40:17;;;;;;;26.77;17.70;;;6.60;62.00;;;;;;5093477;28;20502;-58
2022/03/10 08:42:46;;;;;;;26.73;18.70;;;6.70;62.60;;;;;;5093276;28;20929;-59
2022/03/10 08:45:13;;;;;;;33.80;17.50;;;6.90;62.30;;;;;;5095091;28;20483;-59
2022/03/10 08:47:41;;;;;;;29.13;16.40;;;6.90;61.60;;;;;;5097318;28;20463;-58
2022/03/10 08:50:09;;;;;;;25.83;16.20;;;7.00;61.80;;;;;;5097334;28;20451;-59
2022/03/10 08:52:36;;;;;;;21.10;16.73;;;7.20;61.60;;;;;;5097448;28;20443;-58
2022/03/10 08:55:05;;;;;;;28.93;17.70;;;7.20;61.50;;;;;;5097369;28;20450;-58
2022/03/10 08:57:33;;;;;;;25.77;17.10;;;7.30;60.70;;;;;;5097567;28;20471;-58
2022/03/10 09:00:02;;;;;;;22.50;17.03;;;7.30;59.90;;;;;;5097613;28;20482;-59
2022/03/10 09:02:29;;;;;;;24.73;16.30;;;7.40;59.80;;;;;;5097143;28;20443;-58
2022/03/10 09:04:56;;;;;;;23.90;16.40;;;7.60;60.30;;;;;;5097261;28;20443;-58
2022/03/10 09:07:24;;;;;;;26.03;17.20;;;7.70;60.10;;;;;;5096957;28;20977;-58
2022/03/10 09:09:51;;;;;;;28.20;17.80;;;7.80;59.30;;;;;;5097029;28;20454;-58
2022/03/10 09:12:18;;;;;;;25.63;16.03;;;8.00;59.90;;;;;;5097256;28;20453;-59
2022/03/10 09:14:46;;;;;;;24.23;16.87;;;8.10;59.00;;;;;;5097383;28;20455;-58
2022/03/10 09:17:15;;;;;;;16.73;13.70;;;8.30;59.30;;;;;;5096606;28;20467;-58
2022/03/10 09:19:42;;;;;;;23.50;16.73;;;8.40;59.30;;;;;;5097286;28;20500;-59
2022/03/10 09:22:09;;;;;;;24.13;15.50;;;8.40;58.30;;;;;;5096877;28;20447;-59
2022/03/10 09:24:36;;;;;;;28.10;16.90;;;8.60;67.60;;;;;;5096629;28;20451;-59
2022/03/10 09:27:05;;;;;;;25.00;12.60;;;8.60;58.80;;;;;;5097122;28;20494;-59
2022/03/10 09:29:32;;;;;;;22.63;13.40;;;8.70;58.20;;;;;;5097044;28;20569;-59
2022/03/10 09:31:59;;;;;;;22.50;13.10;;;8.80;58.50;;;;;;5096951;28;20443;-59
2022/03/10 09:34:28;;;;;;;17.87;14.20;;;8.90;57.90;;;;;;5096594;28;20482;-58
2022/03/10 09:36:55;;;;;;;14.13;12.00;;;9.00;57.80;;;;;;5096630;28;20458;-59
2022/03/10 09:39:22;;;;;;;20.80;14.37;;;9.10;57.50;;;;;;5096615;28;20443;-59
2022/03/10 09:41:50;;;;;;;16.37;11.07;;;9.20;57.50;;;;;;5096820;28;20544;-59
2022/03/10 09:44:20;;;;;;;15.53;11.37;;;9.20;57.40;;;;;;5096440;28;20435;-58
2022/03/10 09:46:50;;;;;;;23.00;13.70;;;9.20;57.00;;;;;;5096341;28;21042;-59
2022/03/10 09:49:18;;;;;;;17.90;12.10;;;9.20;57.30;;;;;;5096439;28;20427;-59
2022/03/10 09:51:48;;;;;;;13.07;10.87;;;9.30;57.10;;;;;;5096655;28;20542;-58
2022/03/10 09:54:15;;;;;;;13.37;10.67;;;9.40;57.00;;;;;;5096433;28;20482;-58
2022/03/10 09:56:44;;;;;;;19.30;12.13;;;9.50;57.20;;;;;;5095647;28;20896;-58
2022/03/10 09:59:11;;;;;;;13.17;9.80;;;9.90;56.60;;;;;;5096491;28;20444;-59
2022/03/10 10:01:38;;;;;;;11.10;9.30;;;10.90;57.20;;;;;;5096744;28;20431;-59
2022/03/10 10:04:06;;;;;;;14.30;11.93;;;12.00;53.90;;;;;;5096018;28;20773;-59
2022/03/10 10:06:51;;;;;;;15.60;11.53;;;12.70;59.00;;;;;;5096214;28;20493;-59
2022/03/10 10:09:21;;;;;;;15.87;10.63;;;14.00;57.60;;;;;;5096409;28;20439;-60
2022/03/10 10:11:48;;;;;;;20.30;15.50;;;14.60;50.00;;;;;;5096210;28;20428;-59
2022/03/10 10:14:36;;;;;;;20.17;12.63;;;14.90;50.10;;;;;;5096071;28;20523;-59
2022/03/10 10:17:03;;;;;;;14.00;10.60;;;15.60;49.50;;;;;;5095656;28;20820;-58
2022/03/10 10:19:34;;;;;;;12.00;9.63;;;15.90;48.70;;;;;;5095899;28;20534;-58
2022/03/10 10:22:13;;;;;;;10.57;8.40;;;15.70;46.80;;;;;;5095431;28;20485;-58
2022/03/10 10:24:48;;;;;;;8.47;6.27;;;15.90;46.60;;;;;;5095014;28;20459;-58
2022/03/10 10:27:17;;;;;;;7.37;6.03;;;15.80;46.00;;;;;;5095316;28;20487;-58
2022/03/10 10:29:49;;;;;;;8.00;6.73;;;15.90;45.80;;;;;;5095225;28;20489;-59
2022/03/10 10:32:26;;;;;;;8.93;7.50;;;15.60;45.40;;;;;;5095217;28;20926;-58
2022/03/10 10:35:04;;;;;;;10.93;8.57;;;16.70;48.00;;;;;;5095919;28;20412;-58
2022/03/10 10:37:32;;;;;;;9.40;7.43;;;17.50;45.70;;;;;;5095606;28;20459;-58
2022/03/10 10:40:02;;;;;;;8.00;7.07;;;17.30;44.90;;;;;;5095674;28;20534;-59
2022/03/10 10:42:33;;;;;;;12.03;9.60;;;17.70;45.00;;;;;;5095636;28;20557;-59
2022/03/10 10:45:02;;;;;;;10.60;8.03;;;17.60;46.00;;;;;;5095113;28;20438;-58
2022/03/10 10:47:29;;;;;;;17.20;6.13;;;17.80;44.10;;;;;;5094938;28;21127;-58
2022/03/10 10:50:01;;;;;;;8.43;6.27;;;18.40;42.80;;;;;;5095085;28;20443;-58
2022/03/10 10:52:38;;;;;;;6.20;5.10;;;18.60;42.80;;;;;;5095512;28;20465;-58
2022/03/10 10:55:09;;;;;;;10.73;7.80;;;17.60;41.60;;;;;;5095015;28;20946;-58
2022/03/10 10:57:37;;;;;;;6.60;5.20;;;18.40;43.30;;;;;;5095062;28;21029;-58
2022/03/10 11:00:10;;;;;;;7.23;6.47;;;17.80;41.00;;;;;;5095362;28;20801;-58
2022/03/10 11:02:41;;;;;;;7.80;5.13;;;17.90;42.10;;;;;;5095145;28;20458;-58
2022/03/10 11:05:11;;;;;;;8.50;6.33;;;18.60;41.20;;;;;;5094867;28;20923;-58
2022/03/10 11:07:40;;;;;;;7.83;6.40;;;18.70;41.10;;;;;;5094271;28;21069;-59
2022/03/10 11:10:11;;;;;;;7.57;6.77;;;18.00;40.70;;;;;;5094389;28;20496;-59
2022/03/10 11:12:40;;;;;;;9.90;5.30;;;17.80;41.00;;;;;;5094831;28;20439;-58
2022/03/10 11:15:08;;;;;;;5.83;5.20;;;;;;;;;;5094865;28;20444;-59
2022/03/10 11:17:36;;;;;;;8.03;5.50;;;19.10;40.60;;;;;;5094604;28;20497;-58
2022/03/10 11:20:09;;;;;;;6.60;4.53;;;18.90;39.80;;;;;;5094656;28;20508;-58
2022/03/10 11:22:49;;;;;;;3.47;3.10;;;19.60;39.70;;;;;;5094875;28;20431;-58
2022/03/10 11:25:44;;;;;;;5.70;4.70;;;19.30;40.10;;;;;;5094533;28;20494;-59
2022/03/10 11:28:15;;;;;;;4.17;3.77;;;19.90;39.60;;;;;;5094513;28;20463;-58
2022/03/10 11:30:42;;;;;;;5.40;4.27;;;20.00;39.20;;;;;;5094374;28;20518;-58
2022/03/10 11:33:16;;;;;;;6.33;4.00;;;19.90;38.90;;;;;;5094607;28;20450;-59
2022/03/10 11:35:44;;;;;;;5.47;4.00;;;19.30;38.70;;;;;;5094210;28;20800;-59
2022/03/10 11:38:13;;;;;;;5.17;4.67;;;20.10;38.40;;;;;;5094375;28;20467;-59
2022/03/10 11:40:47;;;;;;;4.63;4.20;;;19.90;38.10;;;;;;5094175;28;20542;-59
2022/03/10 11:43:20;;;;;;;5.20;4.00;;;19.20;37.40;;;;;;5094418;28;20821;-58
2022/03/10 11:45:47;;;;;;;4.50;3.83;;;18.80;37.90;;;;;;5094210;28;20408;-58
2022/03/10 11:48:39;;;;;;;4.50;4.07;;;19.00;37.60;;;;;;5093850;28;20467;-58
2022/03/10 11:51:19;;;;;;;4.70;4.20;;;18.80;37.20;;;;;;5091227;28;20461;-59
2022/03/10 11:54:05;;;;;;;4.27;3.87;;;18.60;37.50;;;;;;5093953;28;20449;-59
2022/03/10 11:57:03;;;;;;;4.13;3.73;;;19.00;37.80;;;;;;5094123;28;20467;-59
2022/03/10 11:59:48;;;;;;;4.80;4.40;;;19.20;37.20;;;;;;5089070;28;20538;-59
2022/03/10 12:02:32;;;;;;;4.40;4.00;;;19.10;37.10;;;;;;5093727;28;20442;-58
2022/03/10 12:05:00;;;;;;;4.00;3.60;;;19.30;37.60;;;;;;5093628;28;20479;-59
2022/03/10 12:07:30;;;;;;;4.47;3.70;;;19.10;37.60;;;;;;5093496;28;20487;-59
2022/03/10 12:10:07;;;;;;;6.00;3.83;;;19.50;36.50;;;;;;5093713;28;20401;-59
2022/03/10 12:12:40;;;;;;;5.43;3.40;;;18.60;35.80;;;;;;5093380;28;20442;-59
2022/03/10 12:15:46;;;;;;;6.00;4.17;;;18.20;35.60;;;;;;5093740;28;20432;-59
2022/03/10 12:18:23;;;;;;;4.70;3.87;;;18.50;36.00;;;;;;5093040;28;20598;-58
2022/03/10 12:20:53;;;;;;;3.90;3.50;;;18.50;36.70;;;;;;5092780;28;20439;-60
2022/03/10 12:23:23;;;;;;;4.73;4.23;;;19.40;37.70;;;;;;5093386;28;20431;-60
2022/03/10 12:25:53;;;;;;;5.03;4.00;;;19.40;43.40;;;;;;5093286;28;20548;-58
2022/03/10 12:28:29;;;;;;;3.70;3.40;;;19.40;37.50;;;;;;5093470;28;20835;-60
2022/03/10 12:31:19;;;;;;;4.30;3.80;;;18.40;35.20;;;;;;5093460;28;20510;-57
2022/03/10 12:33:50;;;;;;;5.50;3.80;;;18.10;36.00;;;;;;5089554;28;20967;-60
2022/03/10 12:36:41;;;;;;;4.50;4.10;;;18.80;36.50;;;;;;5093281;28;20542;-59
2022/03/10 12:39:10;;;;;;;4.20;3.60;;;19.30;36.50;;;;;;5078318;28;20534;-59
2022/03/10 12:41:40;;;;;;;4.20;3.80;;;19.90;36.60;;;;;;5093680;28;20461;-59
2022/03/10 12:44:11;;;;;;;5.63;4.67;;;19.00;35.60;;;;;;5093029;28;20420;-59
2022/03/10 12:46:41;;;;;;;4.37;3.97;;;18.80;36.50;;;;;;5093514;28;20510;-59
2022/03/10 12:49:20;;;;;;;4.83;4.40;;;18.50;36.40;;;;;;5093203;28;20982;-59
2022/03/10 12:51:48;;;;;;;5.50;4.67;;;18.80;36.20;;;;;;5093562;28;20428;-60